Portada
METAR-TAF:

METAR-TAF

Aeroports :

Liberia, Costa Rica

latitud: 10-37N, longitud: 085-26W, altitud: 80 m

Observació

L'informe es va fer fa 1 hora i 4 minuts, a les 22:00 UTC
Vent 23 kt del Est amb ràfegues de 33 kt
Temperatura 33°C
Humitat 44%
Pressió 1006 hPa
Visibilitat 10 km o més
sense núvols per sota de 1500 mi sense presència de cumulonimbus.

METAR: MRLB 142200Z 08023G33KT CAVOK 33/19 A2971

Hora: 17:04 (23:04 UTC)

Pronòstic

L'informe es va fer fa 6 hores i 4 minuts, a les 17:00 UTC
Pronòstic vàlid del 14 a les 18 UTC al 15 a les 18 UTC
Vent 20 kt del Est amb ràfegues de 32 kt
Visibilitat 10 km o més
sense núvols per sota de 1500 mi sense presència de cumulonimbus.

TAF: MRLB 141700Z 1418/1518 08020G32KT CAVOK TX36/1420Z TN24/1511Z

Observacions i pronòstics meteorològics de més de 4000 aeroports (METAR i TAF).

Les estacions disponibles són els punts grocs i vermells al mapa.

Posi el ratolí al punt desitjat per veure el nom de l'estació.

Feu clic per veure les observacions i els pronòstics meteorològics.

Per canviar el mapa: feu clic els botons verds amb una creu de color negre per apropar; al botó verd amb un guió per allunyar la imatge; o en les fletxes verdes per a mapes adjacents.


METAR-TAF: